sensor_id;sensor_type;location;lat;lon;timestamp;pressure;altitude;pressure_sealevel;temperature;humidity
62548;BME280;48602;45.192;5.722;2023-05-31T00:00:20;99005.03;;;20.13;53.91
62548;BME280;48602;45.192;5.722;2023-05-31T00:02:45;99005.03;;;20.13;54.43
62548;BME280;48602;45.192;5.722;2023-05-31T00:05:11;99004.91;;;20.15;54.20
62548;BME280;48602;45.192;5.722;2023-05-31T00:07:36;98997.84;;;20.14;54.50
62548;BME280;48602;45.192;5.722;2023-05-31T00:10:02;99009.41;;;20.14;54.57
62548;BME280;48602;45.192;5.722;2023-05-31T00:12:27;99012.81;;;20.16;54.71
62548;BME280;48602;45.192;5.722;2023-05-31T00:14:52;99000.41;;;20.15;54.13
62548;BME280;48602;45.192;5.722;2023-05-31T00:17:18;99006.75;;;20.14;54.46
62548;BME280;48602;45.192;5.722;2023-05-31T00:19:43;99012.94;;;20.15;54.34
62548;BME280;48602;45.192;5.722;2023-05-31T00:22:09;99020.13;;;20.14;54.89
62548;BME280;48602;45.192;5.722;2023-05-31T00:24:35;99012.94;;;20.15;55.13
62548;BME280;48602;45.192;5.722;2023-05-31T00:27:00;99011.97;;;20.16;54.92
62548;BME280;48602;45.192;5.722;2023-05-31T00:29:26;99016.47;;;20.15;55.15
62548;BME280;48602;45.192;5.722;2023-05-31T00:31:52;99014.88;;;20.13;55.16
62548;BME280;48602;45.192;5.722;2023-05-31T00:34:17;99018.69;;;20.10;54.68
62548;BME280;48602;45.192;5.722;2023-05-31T00:36:43;99015.28;;;20.08;55.30
62548;BME280;48602;45.192;5.722;2023-05-31T00:39:08;99011.03;;;20.06;55.30
62548;BME280;48602;45.192;5.722;2023-05-31T00:41:33;99017.34;;;20.05;55.64
62548;BME280;48602;45.192;5.722;2023-05-31T00:43:59;99010.41;;;20.02;55.44
62548;BME280;48602;45.192;5.722;2023-05-31T00:46:28;99014.91;;;20.02;55.71
62548;BME280;48602;45.192;5.722;2023-05-31T00:48:54;99014.06;;;20.01;55.64
62548;BME280;48602;45.192;5.722;2023-05-31T00:51:20;99011.50;;;20.00;55.59
62548;BME280;48602;45.192;5.722;2023-05-31T00:53:46;99015.28;;;19.97;55.67
62548;BME280;48602;45.192;5.722;2023-05-31T00:56:12;99011.88;;;19.95;55.79
62548;BME280;48602;45.192;5.722;2023-05-31T00:58:40;99014.94;;;19.91;56.20
62548;BME280;48602;45.192;5.722;2023-05-31T01:01:07;99004.59;;;19.86;56.58
62548;BME280;48602;45.192;5.722;2023-05-31T01:03:33;99009.34;;;19.82;56.58
62548;BME280;48602;45.192;5.722;2023-05-31T01:05:59;99006.31;;;19.76;56.09
62548;BME280;48602;45.192;5.722;2023-05-31T01:08:26;99011.28;;;19.69;56.48
62548;BME280;48602;45.192;5.722;2023-05-31T01:10:51;99010.91;;;19.63;57.20
62548;BME280;48602;45.192;5.722;2023-05-31T01:13:38;99019.44;;;19.57;57.42
62548;BME280;48602;45.192;5.722;2023-05-31T01:16:12;99015.41;;;19.51;57.83
62548;BME280;48602;45.192;5.722;2023-05-31T01:18:49;99016.00;;;19.43;57.36
62548;BME280;48602;45.192;5.722;2023-05-31T01:21:23;99015.59;;;19.37;58.03
62548;BME280;48602;45.192;5.722;2023-05-31T01:24:18;99018.00;;;19.29;57.97
62548;BME280;48602;45.192;5.722;2023-05-31T01:26:49;99016.56;;;19.25;58.03
62548;BME280;48602;45.192;5.722;2023-05-31T01:29:19;99019.59;;;19.20;58.26
62548;BME280;48602;45.192;5.722;2023-05-31T01:31:46;99013.63;;;19.16;58.65
62548;BME280;48602;45.192;5.722;2023-05-31T01:34:12;99013.00;;;19.13;58.24
62548;BME280;48602;45.192;5.722;2023-05-31T01:36:38;99019.56;;;19.09;58.82
62548;BME280;48602;45.192;5.722;2023-05-31T01:39:05;99019.91;;;19.04;58.86
62548;BME280;48602;45.192;5.722;2023-05-31T01:41:41;99018.44;;;19.00;59.34
62548;BME280;48602;45.192;5.722;2023-05-31T01:44:07;99025.81;;;18.97;59.09
62548;BME280;48602;45.192;5.722;2023-05-31T01:46:34;99028.72;;;18.94;59.00
62548;BME280;48602;45.192;5.722;2023-05-31T01:49:01;99028.13;;;18.90;59.57
62548;BME280;48602;45.192;5.722;2023-05-31T01:51:27;99021.19;;;18.88;59.59
62548;BME280;48602;45.192;5.722;2023-05-31T01:53:56;99026.53;;;18.88;59.71
62548;BME280;48602;45.192;5.722;2023-05-31T01:56:23;99028.25;;;18.89;59.49
62548;BME280;48602;45.192;5.722;2023-05-31T01:58:50;99027.28;;;18.90;59.84
62548;BME280;48602;45.192;5.722;2023-05-31T02:01:17;99029.31;;;18.86;59.99
62548;BME280;48602;45.192;5.722;2023-05-31T02:03:43;99028.56;;;18.84;59.60
62548;BME280;48602;45.192;5.722;2023-05-31T02:06:08;99030.41;;;18.83;60.26
62548;BME280;48602;45.192;5.722;2023-05-31T02:08:38;99034.78;;;18.85;60.20
62548;BME280;48602;45.192;5.722;2023-05-31T02:11:03;99027.50;;;18.87;60.03
62548;BME280;48602;45.192;5.722;2023-05-31T02:13:30;99032.94;;;18.85;60.21
62548;BME280;48602;45.192;5.722;2023-05-31T02:15:55;99029.75;;;18.80;60.44
62548;BME280;48602;45.192;5.722;2023-05-31T02:18:21;99031.84;;;18.76;60.21
62548;BME280;48602;45.192;5.722;2023-05-31T02:20:47;99032.91;;;18.74;59.90
62548;BME280;48602;45.192;5.722;2023-05-31T02:23:13;99038.38;;;18.72;60.47
62548;BME280;48602;45.192;5.722;2023-05-31T02:25:38;99036.56;;;18.73;61.08
62548;BME280;48602;45.192;5.722;2023-05-31T02:28:04;99038.59;;;18.69;60.79
62548;BME280;48602;45.192;5.722;2023-05-31T02:30:30;99044.28;;;18.65;61.10
62548;BME280;48602;45.192;5.722;2023-05-31T02:32:56;99041.81;;;18.62;61.44
62548;BME280;48602;45.192;5.722;2023-05-31T02:35:22;99032.09;;;18.61;61.23
62548;BME280;48602;45.192;5.722;2023-05-31T02:37:47;99038.28;;;18.61;61.55
62548;BME280;48602;45.192;5.722;2023-05-31T02:40:13;99033.91;;;18.60;61.26
62548;BME280;48602;45.192;5.722;2023-05-31T02:42:40;99032.09;;;18.61;62.28
62548;BME280;48602;45.192;5.722;2023-05-31T02:45:06;99037.44;;;18.61;62.33
62548;BME280;48602;45.192;5.722;2023-05-31T02:47:32;99037.34;;;18.62;62.13
62548;BME280;48602;45.192;5.722;2023-05-31T02:49:57;99037.22;;;18.64;62.17
62548;BME280;48602;45.192;5.722;2023-05-31T02:52:24;99042.44;;;18.65;62.82
62548;BME280;48602;45.192;5.722;2023-05-31T02:54:50;99040.75;;;18.64;62.27
62548;BME280;48602;45.192;5.722;2023-05-31T02:57:15;99038.81;;;18.66;62.36
62548;BME280;48602;45.192;5.722;2023-05-31T02:59:43;99047.91;;;18.64;62.81
62548;BME280;48602;45.192;5.722;2023-05-31T03:02:09;99043.63;;;18.61;62.83
62548;BME280;48602;45.192;5.722;2023-05-31T03:04:35;99046.31;;;18.61;62.35
62548;BME280;48602;45.192;5.722;2023-05-31T03:07:00;99043.63;;;18.61;62.57
62548;BME280;48602;45.192;5.722;2023-05-31T03:09:25;99048.25;;;18.59;62.48
62548;BME280;48602;45.192;5.722;2023-05-31T03:11:51;99040.25;;;18.59;62.70
62548;BME280;48602;45.192;5.722;2023-05-31T03:14:16;99042.06;;;18.59;62.65
62548;BME280;48602;45.192;5.722;2023-05-31T03:16:43;99043.84;;;18.58;62.32
62548;BME280;48602;45.192;5.722;2023-05-31T03:19:08;99042.38;;;18.54;62.93
62548;BME280;48602;45.192;5.722;2023-05-31T03:21:34;99043.34;;;18.53;62.77
62548;BME280;48602;45.192;5.722;2023-05-31T03:24:00;99045.16;;;18.53;62.67
62548;BME280;48602;45.192;5.722;2023-05-31T03:26:26;99048.78;;;18.52;62.80
62548;BME280;48602;45.192;5.722;2023-05-31T03:28:52;99050.72;;;18.49;62.77
62548;BME280;48602;45.192;5.722;2023-05-31T03:31:17;99049.34;;;18.44;62.44
62548;BME280;48602;45.192;5.722;2023-05-31T03:33:44;99052.25;;;18.41;62.63
62548;BME280;48602;45.192;5.722;2023-05-31T03:36:10;99043.63;;;18.37;63.10
62548;BME280;48602;45.192;5.722;2023-05-31T03:38:35;99056.09;;;18.37;63.09
62548;BME280;48602;45.192;5.722;2023-05-31T03:41:00;99051.09;;;18.32;62.84
62548;BME280;48602;45.192;5.722;2023-05-31T03:43:26;99055.78;;;18.29;63.27
62548;BME280;48602;45.192;5.722;2023-05-31T03:45:51;99049.00;;;18.25;63.66
62548;BME280;48602;45.192;5.722;2023-05-31T03:48:17;99051.88;;;18.22;63.85
62548;BME280;48602;45.192;5.722;2023-05-31T03:50:43;99060.97;;;18.19;63.86
62548;BME280;48602;45.192;5.722;2023-05-31T03:53:08;99065.44;;;18.19;63.45
62548;BME280;48602;45.192;5.722;2023-05-31T03:55:34;99062.88;;;18.17;63.72
62548;BME280;48602;45.192;5.722;2023-05-31T03:58:00;99067.38;;;18.17;63.80
62548;BME280;48602;45.192;5.722;2023-05-31T04:00:25;99072.81;;;18.15;63.44
62548;BME280;48602;45.192;5.722;2023-05-31T04:02:51;99074.63;;;18.14;63.01
62548;BME280;48602;45.192;5.722;2023-05-31T04:05:16;99061.50;;;18.11;63.31
62548;BME280;48602;45.192;5.722;2023-05-31T04:07:42;99064.28;;;18.10;63.40
62548;BME280;48602;45.192;5.722;2023-05-31T04:10:08;99068.16;;;18.06;63.72
62548;BME280;48602;45.192;5.722;2023-05-31T04:12:33;99069.22;;;18.03;63.45
62548;BME280;48602;45.192;5.722;2023-05-31T04:14:59;99074.56;;;18.03;63.26
62548;BME280;48602;45.192;5.722;2023-05-31T04:17:24;99067.41;;;18.04;63.69
62548;BME280;48602;45.192;5.722;2023-05-31T04:19:50;99065.69;;;18.03;63.45
62548;BME280;48602;45.192;5.722;2023-05-31T04:22:16;99072.00;;;18.02;63.45
62548;BME280;48602;45.192;5.722;2023-05-31T04:24:42;99072.53;;;17.94;64.35
62548;BME280;48602;45.192;5.722;2023-05-31T04:27:07;99067.53;;;17.90;64.34
62548;BME280;48602;45.192;5.722;2023-05-31T04:29:32;99070.09;;;17.91;64.33
62548;BME280;48602;45.192;5.722;2023-05-31T04:31:58;99070.09;;;17.91;64.15
62548;BME280;48602;45.192;5.722;2023-05-31T04:34:24;99074.56;;;17.91;63.87
62548;BME280;48602;45.192;5.722;2023-05-31T04:36:52;99072.88;;;17.90;63.72
62548;BME280;48602;45.192;5.722;2023-05-31T04:39:18;99068.50;;;17.89;63.46
62548;BME280;48602;45.192;5.722;2023-05-31T04:41:45;99064.00;;;17.89;63.55
62548;BME280;48602;45.192;5.722;2023-05-31T04:44:11;99066.56;;;17.91;63.64
62548;BME280;48602;45.192;5.722;2023-05-31T04:46:36;99063.81;;;17.92;63.66
62548;BME280;48602;45.192;5.722;2023-05-31T04:49:02;99062.81;;;17.93;63.53
62548;BME280;48602;45.192;5.722;2023-05-31T04:51:28;99064.50;;;17.94;63.50
62548;BME280;48602;45.192;5.722;2023-05-31T04:53:54;99068.03;;;17.95;63.45
62548;BME280;48602;45.192;5.722;2023-05-31T04:56:19;99070.59;;;17.96;63.39
62548;BME280;48602;45.192;5.722;2023-05-31T04:58:46;99076.56;;;18.00;63.74
62548;BME280;48602;45.192;5.722;2023-05-31T05:01:12;99082.03;;;17.98;63.82
62548;BME280;48602;45.192;5.722;2023-05-31T05:03:41;99076.03;;;17.95;64.14
62548;BME280;48602;45.192;5.722;2023-05-31T05:06:14;99077.84;;;17.94;63.78
62548;BME280;48602;45.192;5.722;2023-05-31T05:08:44;99082.97;;;17.97;63.99
62548;BME280;48602;45.192;5.722;2023-05-31T05:11:10;99078.19;;;18.02;63.75
62548;BME280;48602;45.192;5.722;2023-05-31T05:13:36;99086.19;;;18.02;63.68
62548;BME280;48602;45.192;5.722;2023-05-31T05:16:01;99077.63;;;17.97;63.39
62548;BME280;48602;45.192;5.722;2023-05-31T05:18:27;99079.34;;;17.98;63.47
62548;BME280;48602;45.192;5.722;2023-05-31T05:20:53;99077.22;;;18.03;63.77
62548;BME280;48602;45.192;5.722;2023-05-31T05:23:18;99083.09;;;18.08;63.58
62548;BME280;48602;45.192;5.722;2023-05-31T05:25:44;99073.78;;;18.14;62.62
62548;BME280;48602;45.192;5.722;2023-05-31T05:28:09;99078.25;;;18.13;63.49
62548;BME280;48602;45.192;5.722;2023-05-31T05:30:35;99074.63;;;18.14;62.99
62548;BME280;48602;45.192;5.722;2023-05-31T05:33:00;99079.75;;;18.18;63.14
62548;BME280;48602;45.192;5.722;2023-05-31T05:35:26;99086.38;;;18.25;62.86
62548;BME280;48602;45.192;5.722;2023-05-31T05:37:51;99073.41;;;18.31;62.66
62548;BME280;48602;45.192;5.722;2023-05-31T05:40:18;99076.50;;;18.38;62.40
62548;BME280;48602;45.192;5.722;2023-05-31T05:42:44;99077.63;;;18.46;61.95
62548;BME280;48602;45.192;5.722;2023-05-31T05:45:10;99072.72;;;18.53;61.68
62548;BME280;48602;45.192;5.722;2023-05-31T05:47:35;99075.81;;;18.60;61.56
62548;BME280;48602;45.192;5.722;2023-05-31T05:50:01;99082.50;;;18.65;61.54
62548;BME280;48602;45.192;5.722;2023-05-31T05:52:26;99076.84;;;18.70;61.41
62548;BME280;48602;45.192;5.722;2023-05-31T05:54:52;99075.66;;;18.74;61.12
62548;BME280;48602;45.192;5.722;2023-05-31T05:57:17;99080.63;;;18.78;60.96
62548;BME280;48602;45.192;5.722;2023-05-31T05:59:44;99081.25;;;18.82;60.82
62548;BME280;48602;45.192;5.722;2023-05-31T06:02:10;99084.44;;;18.87;60.84
62548;BME280;48602;45.192;5.722;2023-05-31T06:04:37;99093.69;;;18.94;60.40
62548;BME280;48602;45.192;5.722;2023-05-31T06:07:03;99085.34;;;18.99;60.78
62548;BME280;48602;45.192;5.722;2023-05-31T06:09:29;99090.00;;;19.08;61.19
62548;BME280;48602;45.192;5.722;2023-05-31T06:11:54;99088.44;;;19.16;60.70
62548;BME280;48602;45.192;5.722;2023-05-31T06:14:19;99087.78;;;19.26;61.05
62548;BME280;48602;45.192;5.722;2023-05-31T06:16:45;99095.94;;;19.35;60.40
62548;BME280;48602;45.192;5.722;2023-05-31T06:19:10;99092.78;;;19.41;60.22
62548;BME280;48602;45.192;5.722;2023-05-31T06:21:36;99098.50;;;19.48;60.40
62548;BME280;48602;45.192;5.722;2023-05-31T06:24:02;99098.81;;;19.56;60.63
62548;BME280;48602;45.192;5.722;2023-05-31T06:26:28;99103.31;;;19.67;60.66
62548;BME280;48602;45.192;5.722;2023-05-31T06:28:53;99100.66;;;19.78;60.47
62548;BME280;48602;45.192;5.722;2023-05-31T06:31:18;99100.78;;;19.88;60.15
62548;BME280;48602;45.192;5.722;2023-05-31T06:33:44;99099.22;;;19.96;59.98
62548;BME280;48602;45.192;5.722;2023-05-31T06:36:09;99097.63;;;20.05;59.75
62548;BME280;48602;45.192;5.722;2023-05-31T06:38:35;99099.56;;;20.14;59.27
62548;BME280;48602;45.192;5.722;2023-05-31T06:41:00;99106.88;;;20.23;59.23
62548;BME280;48602;45.192;5.722;2023-05-31T06:43:26;99094.56;;;20.32;58.74
62548;BME280;48602;45.192;5.722;2023-05-31T06:45:51;99101.06;;;20.40;58.81
62548;BME280;48602;45.192;5.722;2023-05-31T06:48:17;99099.56;;;20.47;58.69
62548;BME280;48602;45.192;5.722;2023-05-31T06:50:42;99103.22;;;20.58;58.35
62548;BME280;48602;45.192;5.722;2023-05-31T06:53:08;99102.34;;;20.68;57.24
62548;BME280;48602;45.192;5.722;2023-05-31T06:55:34;99101.72;;;20.76;57.45
62548;BME280;48602;45.192;5.722;2023-05-31T06:58:00;99099.38;;;20.82;57.15
62548;BME280;48602;45.192;5.722;2023-05-31T07:00:26;99103.25;;;20.89;56.55
62548;BME280;48602;45.192;5.722;2023-05-31T07:02:51;99098.38;;;20.95;55.96
62548;BME280;48602;45.192;5.722;2023-05-31T07:05:17;99098.81;;;21.00;55.65
62548;BME280;48602;45.192;5.722;2023-05-31T07:07:42;99102.72;;;21.07;55.71
62548;BME280;48602;45.192;5.722;2023-05-31T07:10:08;99098.66;;;21.12;55.86
62548;BME280;48602;45.192;5.722;2023-05-31T07:12:33;99100.94;;;21.17;56.47
62548;BME280;48602;45.192;5.722;2023-05-31T07:14:59;99099.00;;;21.19;56.13
62548;BME280;48602;45.192;5.722;2023-05-31T07:17:24;99104.88;;;21.24;56.58
62548;BME280;48602;45.192;5.722;2023-05-31T07:19:50;99109.81;;;21.29;56.68
62548;BME280;48602;45.192;5.722;2023-05-31T07:22:16;99110.28;;;21.34;56.60
62548;BME280;48602;45.192;5.722;2023-05-31T07:24:42;99106.97;;;21.41;56.55
62548;BME280;48602;45.192;5.722;2023-05-31T07:27:08;99115.06;;;21.51;56.71
62548;BME280;48602;45.192;5.722;2023-05-31T07:29:34;99112.72;;;21.57;56.42
62548;BME280;48602;45.192;5.722;2023-05-31T07:31:59;99108.66;;;21.63;56.57
62548;BME280;48602;45.192;5.722;2023-05-31T07:34:25;99105.59;;;21.68;56.55
62548;BME280;48602;45.192;5.722;2023-05-31T07:36:50;99102.66;;;21.71;56.30
62548;BME280;48602;45.192;5.722;2023-05-31T07:39:16;99100.56;;;21.74;55.96
62548;BME280;48602;45.192;5.722;2023-05-31T07:41:41;99098.00;;;21.73;55.80
62548;BME280;48602;45.192;5.722;2023-05-31T07:44:08;99106.78;;;21.75;56.14
62548;BME280;48602;45.192;5.722;2023-05-31T07:46:34;99104.94;;;21.75;55.92
62548;BME280;48602;45.192;5.722;2023-05-31T07:49:01;99101.41;;;21.75;55.43
62548;BME280;48602;45.192;5.722;2023-05-31T07:51:28;99094.22;;;21.75;55.79
62548;BME280;48602;45.192;5.722;2023-05-31T07:53:54;99101.72;;;21.81;55.47
62548;BME280;48602;45.192;5.722;2023-05-31T07:56:19;99103.03;;;21.87;54.97
62548;BME280;48602;45.192;5.722;2023-05-31T07:58:45;99108.00;;;21.91;55.18
62548;BME280;48602;45.192;5.722;2023-05-31T08:01:10;99099.69;;;21.94;55.64
62548;BME280;48602;45.192;5.722;2023-05-31T08:03:36;99111.72;;;22.00;55.62
62548;BME280;48602;45.192;5.722;2023-05-31T08:06:01;99100.47;;;22.06;55.21
62548;BME280;48602;45.192;5.722;2023-05-31T08:08:26;99100.91;;;22.11;55.37
62548;BME280;48602;45.192;5.722;2023-05-31T08:10:52;99102.19;;;22.17;55.50
62548;BME280;48602;45.192;5.722;2023-05-31T08:13:18;99102.78;;;22.20;55.14
62548;BME280;48602;45.192;5.722;2023-05-31T08:15:43;99100.09;;;22.20;55.45
62548;BME280;48602;45.192;5.722;2023-05-31T08:18:08;99096.44;;;22.21;55.53
62548;BME280;48602;45.192;5.722;2023-05-31T08:20:35;99094.34;;;22.25;55.28
62548;BME280;48602;45.192;5.722;2023-05-31T08:23:01;99098.59;;;22.27;55.09
62548;BME280;48602;45.192;5.722;2023-05-31T08:25:26;99099.13;;;22.31;55.19
62548;BME280;48602;45.192;5.722;2023-05-31T08:27:51;99094.22;;;22.36;54.93
62548;BME280;48602;45.192;5.722;2023-05-31T08:30:17;99101.88;;;22.41;54.76
62548;BME280;48602;45.192;5.722;2023-05-31T08:32:42;99103.13;;;22.46;54.99
62548;BME280;48602;45.192;5.722;2023-05-31T08:35:08;99099.19;;;22.50;54.57
62548;BME280;48602;45.192;5.722;2023-05-31T08:37:35;99098.66;;;22.56;54.52
62548;BME280;48602;45.192;5.722;2023-05-31T08:40:01;99096.69;;;22.58;54.33
62548;BME280;48602;45.192;5.722;2023-05-31T08:42:37;99094.28;;;22.65;54.16
62548;BME280;48602;45.192;5.722;2023-05-31T08:45:04;99094.72;;;22.70;53.94
62548;BME280;48602;45.192;5.722;2023-05-31T08:47:45;99094.31;;;22.75;53.98
62548;BME280;48602;45.192;5.722;2023-05-31T08:50:11;99101.00;;;22.80;53.58
62548;BME280;48602;45.192;5.722;2023-05-31T08:52:38;99091.41;;;22.87;53.24
62548;BME280;48602;45.192;5.722;2023-05-31T08:55:04;99102.72;;;22.91;53.29
62548;BME280;48602;45.192;5.722;2023-05-31T08:57:31;99097.06;;;22.94;53.11
62548;BME280;48602;45.192;5.722;2023-05-31T08:59:58;99096.94;;;23.05;52.91
62548;BME280;48602;45.192;5.722;2023-05-31T09:02:24;99094.94;;;23.17;52.88
62548;BME280;48602;45.192;5.722;2023-05-31T09:04:50;99092.69;;;23.22;52.26
62548;BME280;48602;45.192;5.722;2023-05-31T09:07:17;99091.13;;;23.29;52.41
62548;BME280;48602;45.192;5.722;2023-05-31T09:09:42;99086.00;;;23.36;52.04
62548;BME280;48602;45.192;5.722;2023-05-31T09:12:08;99078.22;;;23.42;51.57
62548;BME280;48602;45.192;5.722;2023-05-31T09:14:33;99073.56;;;23.54;51.56
62548;BME280;48602;45.192;5.722;2023-05-31T09:16:59;99077.38;;;23.61;51.33
62548;BME280;48602;45.192;5.722;2023-05-31T09:19:25;99077.50;;;23.69;51.53
62548;BME280;48602;45.192;5.722;2023-05-31T09:21:51;99077.31;;;23.80;50.64
62548;BME280;48602;45.192;5.722;2023-05-31T09:24:17;99077.28;;;23.90;49.83
62548;BME280;48602;45.192;5.722;2023-05-31T09:26:51;99071.72;;;24.01;49.69
62548;BME280;48602;45.192;5.722;2023-05-31T09:29:17;99076.09;;;24.12;49.83
62548;BME280;48602;45.192;5.722;2023-05-31T09:31:46;99074.94;;;24.24;49.47
62548;BME280;48602;45.192;5.722;2023-05-31T09:34:25;99081.81;;;24.36;48.63
62548;BME280;48602;45.192;5.722;2023-05-31T09:36:51;99077.38;;;24.45;48.40
62548;BME280;48602;45.192;5.722;2023-05-31T09:39:17;99075.31;;;24.56;48.17
62548;BME280;48602;45.192;5.722;2023-05-31T09:41:49;99070.84;;;24.65;47.88
62548;BME280;48602;45.192;5.722;2023-05-31T09:44:15;99073.19;;;24.78;47.97
62548;BME280;48602;45.192;5.722;2023-05-31T09:46:41;99073.81;;;24.89;47.41
62548;BME280;48602;45.192;5.722;2023-05-31T09:49:06;99067.38;;;25.00;46.96
62548;BME280;48602;45.192;5.722;2023-05-31T09:51:34;99070.00;;;25.10;46.90
62548;BME280;48602;45.192;5.722;2023-05-31T09:54:01;99069.69;;;25.13;46.70
62548;BME280;48602;45.192;5.722;2023-05-31T09:56:36;99062.97;;;25.17;46.60
62548;BME280;48602;45.192;5.722;2023-05-31T09:59:02;99052.72;;;25.20;46.79
62548;BME280;48602;45.192;5.722;2023-05-31T10:01:34;99054.66;;;25.28;46.50
62548;BME280;48602;45.192;5.722;2023-05-31T10:04:01;99051.59;;;25.31;46.73
62548;BME280;48602;45.192;5.722;2023-05-31T10:06:28;99058.53;;;25.33;46.51
62548;BME280;48602;45.192;5.722;2023-05-31T10:08:54;99049.38;;;25.44;46.79
62548;BME280;48602;45.192;5.722;2023-05-31T10:11:24;99047.56;;;25.53;46.41
62548;BME280;48602;45.192;5.722;2023-05-31T10:13:59;99051.34;;;25.60;46.42
62548;BME280;48602;45.192;5.722;2023-05-31T10:16:26;99046.66;;;25.62;46.25
62548;BME280;48602;45.192;5.722;2023-05-31T10:18:57;99042.78;;;25.64;46.22
62548;BME280;48602;45.192;5.722;2023-05-31T10:21:27;99036.91;;;25.69;46.51
62548;BME280;48602;45.192;5.722;2023-05-31T10:24:02;99032.50;;;25.68;45.68
62548;BME280;48602;45.192;5.722;2023-05-31T10:29:40;99031.88;;;25.74;45.95
62548;BME280;48602;45.192;5.722;2023-05-31T10:32:17;99034.25;;;25.77;45.86
62548;BME280;48602;45.192;5.722;2023-05-31T10:34:44;99034.09;;;25.79;45.87
62548;BME280;48602;45.192;5.722;2023-05-31T10:37:10;99037.66;;;25.79;45.90
62548;BME280;48602;45.192;5.722;2023-05-31T10:45:27;99035.69;;;25.89;45.84
62548;BME280;48602;45.192;5.722;2023-05-31T10:48:10;99038.59;;;25.96;45.66
62548;BME280;48602;45.192;5.722;2023-05-31T10:50:55;99041.31;;;26.04;45.28
62548;BME280;48602;45.192;5.722;2023-05-31T10:53:22;99035.28;;;26.10;45.17
62548;BME280;48602;45.192;5.722;2023-05-31T10:55:47;99032.59;;;26.18;45.12
62548;BME280;48602;45.192;5.722;2023-05-31T10:58:30;99039.06;;;26.25;45.22
62548;BME280;48602;45.192;5.722;2023-05-31T11:00:56;99032.28;;;26.21;44.54
62548;BME280;48602;45.192;5.722;2023-05-31T11:03:25;99030.59;;;26.20;44.85
62548;BME280;48602;45.192;5.722;2023-05-31T11:06:00;99038.16;;;26.17;45.08
62548;BME280;48602;45.192;5.722;2023-05-31T11:08:26;99025.84;;;26.14;44.66
62548;BME280;48602;45.192;5.722;2023-05-31T11:10:52;99020.25;;;26.16;44.54
62548;BME280;48602;45.192;5.722;2023-05-31T11:13:18;99025.00;;;26.22;44.42
62548;BME280;48602;45.192;5.722;2023-05-31T11:15:45;99029.41;;;26.23;45.12
62548;BME280;48602;45.192;5.722;2023-05-31T11:18:22;99025.34;;;26.19;44.67
62548;BME280;48602;45.192;5.722;2023-05-31T11:20:48;99023.31;;;26.13;45.07
62548;BME280;48602;45.192;5.722;2023-05-31T11:25:43;99022.63;;;26.11;45.25
62548;BME280;48602;45.192;5.722;2023-05-31T11:28:08;99017.06;;;26.12;45.20
62548;BME280;48602;45.192;5.722;2023-05-31T11:30:37;99011.66;;;26.12;44.91
62548;BME280;48602;45.192;5.722;2023-05-31T11:33:13;99013.66;;;26.10;44.44
62548;BME280;48602;45.192;5.722;2023-05-31T11:35:38;98999.84;;;26.13;44.09
62548;BME280;48602;45.192;5.722;2023-05-31T11:38:04;99012.50;;;26.21;44.19
62548;BME280;48602;45.192;5.722;2023-05-31T11:40:31;99006.31;;;26.28;44.10
62548;BME280;48602;45.192;5.722;2023-05-31T11:43:02;99010.38;;;26.32;43.60
62548;BME280;48602;45.192;5.722;2023-05-31T11:45:28;99013.44;;;26.37;43.14
62548;BME280;48602;45.192;5.722;2023-05-31T11:50:31;99014.09;;;26.31;42.95
62548;BME280;48602;45.192;5.722;2023-05-31T11:53:01;99016.25;;;26.28;42.34
62548;BME280;48602;45.192;5.722;2023-05-31T11:55:30;99019.09;;;26.18;42.66
62548;BME280;48602;45.192;5.722;2023-05-31T11:58:00;99016.22;;;26.20;42.50
62548;BME280;48602;45.192;5.722;2023-05-31T12:00:27;99019.97;;;26.27;42.64
62548;BME280;48602;45.192;5.722;2023-05-31T12:02:55;99023.03;;;26.32;42.76
62548;BME280;48602;45.192;5.722;2023-05-31T12:05:29;99023.78;;;26.42;41.80
62548;BME280;48602;45.192;5.722;2023-05-31T12:07:55;99017.34;;;26.43;41.33
62548;BME280;48602;45.192;5.722;2023-05-31T12:10:25;99014.16;;;26.48;41.80
62548;BME280;48602;45.192;5.722;2023-05-31T12:12:50;99017.19;;;26.53;41.78
62548;BME280;48602;45.192;5.722;2023-05-31T12:15:16;99009.13;;;26.61;41.46
62548;BME280;48602;45.192;5.722;2023-05-31T12:17:41;99014.53;;;26.69;42.24
62548;BME280;48602;45.192;5.722;2023-05-31T12:20:07;99003.72;;;26.77;41.76
62548;BME280;48602;45.192;5.722;2023-05-31T12:22:34;99007.28;;;26.86;41.35
62548;BME280;48602;45.192;5.722;2023-05-31T12:25:00;99001.03;;;26.85;41.00
62548;BME280;48602;45.192;5.722;2023-05-31T12:27:27;98999.00;;;26.87;41.28
62548;BME280;48602;45.192;5.722;2023-05-31T12:29:57;98995.59;;;26.85;42.00
62548;BME280;48602;45.192;5.722;2023-05-31T12:32:22;98990.72;;;26.89;41.46
62548;BME280;48602;45.192;5.722;2023-05-31T12:34:52;98984.28;;;26.90;41.63
62548;BME280;48602;45.192;5.722;2023-05-31T12:37:18;98994.94;;;26.91;41.75
62548;BME280;48602;45.192;5.722;2023-05-31T12:39:45;98985.81;;;26.92;41.64
62548;BME280;48602;45.192;5.722;2023-05-31T12:42:11;98982.97;;;26.94;41.16
62548;BME280;48602;45.192;5.722;2023-05-31T12:44:36;98983.13;;;26.92;41.52
62548;BME280;48602;45.192;5.722;2023-05-31T12:47:06;98976.38;;;26.96;42.02
62548;BME280;48602;45.192;5.722;2023-05-31T12:49:33;98981.13;;;26.94;41.11
62548;BME280;48602;45.192;5.722;2023-05-31T12:52:06;98975.38;;;26.97;41.72
62548;BME280;48602;45.192;5.722;2023-05-31T12:54:34;98973.53;;;26.98;41.42
62548;BME280;48602;45.192;5.722;2023-05-31T12:57:01;98969.78;;;27.07;42.44
62548;BME280;48602;45.192;5.722;2023-05-31T12:59:27;98960.81;;;27.15;41.85
62548;BME280;48602;45.192;5.722;2023-05-31T13:01:54;98963.50;;;27.23;42.23
62548;BME280;48602;45.192;5.722;2023-05-31T13:04:20;98959.63;;;27.25;41.43
62548;BME280;48602;45.192;5.722;2023-05-31T13:06:46;98959.94;;;27.22;41.46
62548;BME280;48602;45.192;5.722;2023-05-31T13:09:11;98952.34;;;27.18;40.37
62548;BME280;48602;45.192;5.722;2023-05-31T13:11:38;98948.97;;;26.99;40.30